Time;durP1;ratioP1;P1;durP2;ratioP2;P2;SDS_P1;SDS_P2;PMS_P1;PMS_P2;Temp;Humidity;BMP_temperature;BMP_pressure;BME280_temperature;BME280_humidity;BME280_pressure;Samples;Min_cycle;Max_cycle;Signal;HPM_P1;HPM_P2
2021/12/22 00:00:14;;;;;;;28.45;19.83;;;-3.80;99.90;;;;;;5059456;28;20071;-77
2021/12/22 00:02:47;;;;;;;26.13;18.43;;;-3.80;99.90;;;;;;5057992;28;20048;-78
2021/12/22 00:05:16;;;;;;;22.20;18.10;;;-3.80;99.90;;;;;;5075431;28;20313;-78
2021/12/22 00:07:42;;;;;;;25.42;18.02;;;-3.80;99.90;;;;;;5075359;28;20131;-79
2021/12/22 00:10:08;;;;;;;28.58;18.20;;;-3.80;99.90;;;;;;5075514;28;20131;-78
2021/12/22 00:12:33;;;;;;;25.60;17.80;;;-3.80;99.90;;;;;;5075380;28;20047;-78
2021/12/22 00:14:59;;;;;;;25.00;18.30;;;-3.80;99.90;;;;;;5058569;28;20040;-76
2021/12/22 00:17:25;;;;;;;27.42;18.52;;;-3.80;99.90;;;;;;5075718;28;20044;-79
2021/12/22 00:19:50;;;;;;;25.73;18.60;;;-3.80;99.90;;;;;;5057960;28;20408;-78
2021/12/22 00:22:16;;;;;;;26.00;17.05;;;-3.90;99.90;;;;;;5074257;28;20040;-78
2021/12/22 00:24:41;;;;;;;26.90;17.83;;;-3.80;99.90;;;;;;5075971;28;20044;-79
2021/12/22 00:27:07;;;;;;;25.70;18.45;;;-3.90;99.90;;;;;;5075509;28;20042;-79
2021/12/22 00:29:33;;;;;;;23.25;17.17;;;-3.80;99.90;;;;;;5075007;28;20044;-80
2021/12/22 00:32:10;;;;;;;23.35;16.77;;;-3.90;99.90;;;;;;5074949;28;20036;-70
2021/12/22 00:34:45;;;;;;;24.92;17.05;;;-3.90;99.90;;;;;;5055695;28;20114;-79
2021/12/22 00:37:11;;;;;;;28.35;18.63;;;-4.00;99.90;;;;;;5061000;28;20044;-77
2021/12/22 00:39:37;;;;;;;25.13;17.98;;;-3.90;99.90;;;;;;5074479;28;20040;-77
2021/12/22 00:42:03;;;;;;;22.55;16.98;;;-4.00;99.90;;;;;;5074322;28;20046;-76
2021/12/22 00:44:28;;;;;;;23.25;16.88;;;-4.00;99.90;;;;;;5074846;28;20048;-74
2021/12/22 00:46:54;;;;;;;21.40;16.65;;;-4.00;99.90;;;;;;5073774;28;20059;-78
2021/12/22 00:49:20;;;;;;;20.55;16.40;;;-3.90;99.90;;;;;;5075326;28;20130;-81
2021/12/22 00:51:46;;;;;;;22.17;17.60;;;-4.00;99.90;;;;;;5074336;28;20453;-81
2021/12/22 00:54:11;;;;;;;21.17;15.73;;;-4.00;99.90;;;;;;5075200;28;20472;-81
2021/12/22 00:56:38;;;;;;;25.05;16.70;;;-4.00;99.90;;;;;;5074398;28;20047;-82
2021/12/22 00:59:04;;;;;;;21.63;15.77;;;-4.00;99.90;;;;;;5075209;28;20123;-81
2021/12/22 01:01:30;;;;;;;21.23;16.70;;;-4.00;99.90;;;;;;5058239;28;20582;-79
2021/12/22 01:03:56;;;;;;;24.83;17.05;;;-4.00;99.90;;;;;;5057999;28;20469;-82
2021/12/22 01:06:23;;;;;;;23.65;16.65;;;-4.00;99.90;;;;;;5074574;28;20044;-81
2021/12/22 01:08:49;;;;;;;21.35;15.10;;;-4.10;99.90;;;;;;5074368;28;20051;-72
2021/12/22 01:11:15;;;;;;;23.52;16.35;;;-4.00;99.90;;;;;;5072877;28;20504;-82
2021/12/22 01:13:41;;;;;;;23.73;15.48;;;-4.00;99.90;;;;;;5074244;28;20067;-80
2021/12/22 01:16:06;;;;;;;21.73;15.45;;;-4.10;99.90;;;;;;5074391;28;20044;-79
2021/12/22 01:18:35;;;;;;;18.95;15.27;;;-4.10;99.90;;;;;;5073654;28;20097;-70
2021/12/22 01:21:14;;;;;;;20.95;15.88;;;-4.10;99.90;;;;;;5073922;28;20048;-79
2021/12/22 01:23:58;;;;;;;20.90;15.77;;;-4.20;99.90;;;;;;5074325;28;20093;-78
2021/12/22 01:26:23;;;;;;;24.05;14.77;;;-4.20;99.90;;;;;;5056399;28;20046;-81
2021/12/22 01:28:49;;;;;;;21.85;15.57;;;-4.20;99.90;;;;;;5073676;28;20445;-81
2021/12/22 01:31:16;;;;;;;23.95;15.18;;;-4.20;99.90;;;;;;5054038;28;20067;-80
2021/12/22 01:33:42;;;;;;;19.00;14.85;;;-4.20;99.90;;;;;;5073699;28;20519;-80
2021/12/22 01:36:08;;;;;;;18.48;14.45;;;-4.20;99.90;;;;;;5073899;28;20052;-79
2021/12/22 01:38:34;;;;;;;21.92;15.23;;;-4.20;99.90;;;;;;5073585;28;20040;-80
2021/12/22 01:40:59;;;;;;;21.50;14.98;;;-4.20;99.90;;;;;;5091105;28;20101;-80
2021/12/22 01:43:25;;;;;;;20.10;15.02;;;-4.30;99.90;;;;;;5073728;28;20123;-80
2021/12/22 01:46:08;;;;;;;23.15;15.70;;;-4.20;99.90;;;;;;5072898;28;20400;-78
2021/12/22 01:49:11;;;;;;;20.25;14.85;;;-4.30;99.90;;;;;;5053630;28;20048;-77
2021/12/22 01:51:44;;;;;;;19.88;14.20;;;-4.30;99.90;;;;;;5053857;28;20051;-78
2021/12/22 01:54:38;;;;;;;19.95;13.85;;;-4.30;99.90;;;;;;5053297;28;20091;-78
2021/12/22 01:57:09;;;;;;;19.00;14.45;;;-4.30;99.90;;;;;;5028462;28;20099;-72
2021/12/22 01:59:36;;;;;;;20.83;14.73;;;-4.40;99.90;;;;;;5034041;28;20036;-77
2021/12/22 02:02:04;;;;;;;22.85;15.10;;;-4.40;99.90;;;;;;5050934;28;20090;-77
2021/12/22 02:04:30;;;;;;;25.55;16.05;;;-4.40;99.90;;;;;;5053731;28;20048;-75
2021/12/22 02:06:55;;;;;;;18.55;13.90;;;-4.40;99.90;;;;;;5052152;28;20423;-77
2021/12/22 02:09:37;;;;;;;21.08;14.43;;;-4.30;99.90;;;;;;5036331;28;20560;-78
2021/12/22 02:12:03;;;;;;;18.80;15.13;;;-4.40;99.90;;;;;;5052772;28;20036;-78
2021/12/22 02:14:29;;;;;;;19.55;14.55;;;-4.40;99.90;;;;;;5036077;28;20103;-75
2021/12/22 02:16:54;;;;;;;20.25;15.05;;;-4.30;99.90;;;;;;5053053;28;20076;-77
2021/12/22 02:19:20;;;;;;;19.02;14.52;;;-4.40;99.90;;;;;;5036799;28;20131;-77
2021/12/22 02:21:52;;;;;;;19.80;14.20;;;-4.40;99.90;;;;;;5052302;28;20440;-78
2021/12/22 02:24:17;;;;;;;22.67;14.60;;;-4.40;99.90;;;;;;5053221;28;20114;-78
2021/12/22 02:26:50;;;;;;;19.90;14.07;;;-4.40;99.90;;;;;;5035708;28;20041;-79
2021/12/22 02:29:20;;;;;;;22.88;14.95;;;-4.40;99.90;;;;;;5036427;28;20063;-79
2021/12/22 02:32:06;;;;;;;22.77;14.98;;;-4.40;99.90;;;;;;5052943;28;20443;-78
2021/12/22 02:34:39;;;;;;;21.67;15.35;;;-4.40;99.90;;;;;;5035358;28;20483;-79
2021/12/22 02:37:11;;;;;;;22.15;14.60;;;-4.40;99.90;;;;;;5052756;28;20051;-78
2021/12/22 02:39:37;;;;;;;19.75;15.07;;;-4.40;99.90;;;;;;5053066;28;20044;-79
2021/12/22 02:42:03;;;;;;;21.60;14.93;;;-4.40;99.90;;;;;;5052217;28;20464;-78
2021/12/22 02:44:29;;;;;;;20.98;14.88;;;-4.40;99.90;;;;;;5035987;28;20048;-74
2021/12/22 02:46:54;;;;;;;21.15;14.68;;;-4.40;99.90;;;;;;5059565;28;20381;-78
2021/12/22 02:49:20;;;;;;;24.40;15.15;;;-4.40;99.90;;;;;;5072311;28;20557;-78
2021/12/22 02:51:46;;;;;;;25.45;15.85;;;-4.40;99.90;;;;;;5073119;28;20054;-79
2021/12/22 02:54:18;;;;;;;23.33;16.08;;;-4.40;99.90;;;;;;5072104;28;20051;-79
2021/12/22 02:59:33;;;;;;;28.25;17.65;;;-4.40;99.90;;;;;;5072114;28;20040;-73
2021/12/22 03:02:21;;;;;;;20.85;15.40;;;-4.40;99.90;;;;;;5072751;28;20171;-74
2021/12/22 03:04:56;;;;;;;29.48;17.58;;;-4.40;99.90;;;;;;5072544;28;20465;-78
2021/12/22 03:07:27;;;;;;;24.55;17.08;;;-4.40;99.90;;;;;;5056038;28;20476;-78
2021/12/22 03:10:04;;;;;;;25.90;16.95;;;-4.50;99.90;;;;;;5064633;28;20052;-79
2021/12/22 03:12:33;;;;;;;22.45;16.42;;;-4.40;99.90;;;;;;5072330;28;20055;-78
2021/12/22 03:14:59;;;;;;;25.35;18.30;;;-4.40;99.90;;;;;;5055289;28;20090;-73
2021/12/22 03:17:25;;;;;;;27.10;18.35;;;-4.40;99.90;;;;;;5055319;28;20076;-79
2021/12/22 03:19:51;;;;;;;25.23;17.95;;;-4.40;99.90;;;;;;5075594;28;20525;-77
2021/12/22 03:22:19;;;;;;;29.48;18.35;;;-4.40;99.90;;;;;;5076134;28;20036;-79
2021/12/22 03:24:47;;;;;;;30.05;18.92;;;-4.40;99.90;;;;;;5074728;28;20047;-82
2021/12/22 03:27:13;;;;;;;29.42;19.08;;;-4.40;99.90;;;;;;5092075;28;20487;-82
2021/12/22 03:29:39;;;;;;;26.23;17.42;;;-4.40;99.90;;;;;;5096858;28;20199;-81
2021/12/22 03:32:06;;;;;;;26.70;17.50;;;-4.40;99.90;;;;;;5096500;28;20039;-80
2021/12/22 03:34:32;;;;;;;30.20;17.80;;;-4.40;99.90;;;;;;5096326;28;20058;-81
2021/12/22 03:36:58;;;;;;;26.95;17.90;;;-4.40;99.90;;;;;;5096445;28;20050;-81
2021/12/22 03:39:24;;;;;;;29.92;17.85;;;-4.40;99.90;;;;;;5103605;28;20036;-82
2021/12/22 03:41:49;;;;;;;27.02;17.90;;;-4.40;99.90;;;;;;5096366;28;20047;-82
2021/12/22 03:44:15;;;;;;;30.88;18.60;;;-4.50;99.90;;;;;;5076049;28;20515;-83
2021/12/22 03:46:41;;;;;;;27.90;17.30;;;-4.50;99.90;;;;;;5075850;28;20063;-72
2021/12/22 03:49:10;;;;;;;29.13;18.65;;;-4.50;99.90;;;;;;5093246;28;20403;-72
2021/12/22 03:51:36;;;;;;;29.30;17.98;;;-4.50;99.90;;;;;;5096581;28;20553;-81
2021/12/22 03:54:04;;;;;;;31.25;19.25;;;-4.50;99.90;;;;;;5078815;28;20422;-81
2021/12/22 03:56:29;;;;;;;27.75;19.10;;;-4.40;99.90;;;;;;5079653;28;20142;-80
2021/12/22 03:58:55;;;;;;;27.83;18.95;;;-4.40;99.90;;;;;;5079169;28;20123;-79
2021/12/22 04:01:20;;;;;;;32.20;19.05;;;-4.40;99.90;;;;;;5095846;28;20093;-80
2021/12/22 04:03:49;;;;;;;27.23;17.02;;;-4.40;99.90;;;;;;5079032;28;20468;-78
2021/12/22 04:06:15;;;;;;;24.55;17.00;;;-4.40;99.90;;;;;;5096164;28;20097;-78
2021/12/22 04:08:41;;;;;;;31.75;19.48;;;-4.40;99.90;;;;;;5094573;28;20051;-78
2021/12/22 04:11:07;;;;;;;33.53;19.98;;;-4.30;99.90;;;;;;5079831;28;20048;-78
2021/12/22 04:13:32;;;;;;;32.92;19.63;;;-4.40;99.90;;;;;;5084451;28;20071;-79
2021/12/22 04:15:58;;;;;;;27.08;17.85;;;-4.40;99.90;;;;;;5095912;28;20581;-77
2021/12/22 04:18:24;;;;;;;32.58;19.52;;;-4.40;99.90;;;;;;5092146;28;20045;-78
2021/12/22 04:20:49;;;;;;;28.88;18.70;;;-4.40;99.90;;;;;;5075522;28;20044;-78
2021/12/22 04:23:15;;;;;;;29.88;19.10;;;-4.40;99.90;;;;;;5064872;28;20040;-79
2021/12/22 04:25:42;;;;;;;27.83;18.08;;;-4.40;99.90;;;;;;5096032;28;20527;-78
2021/12/22 04:28:09;;;;;;;28.33;17.90;;;-4.40;99.90;;;;;;5095396;28;20046;-78
2021/12/22 04:30:38;;;;;;;28.95;18.80;;;-4.40;99.90;;;;;;5095393;28;20047;-78
2021/12/22 04:33:04;;;;;;;26.13;17.75;;;-4.50;99.90;;;;;;5078468;28;20043;-77
2021/12/22 04:35:30;;;;;;;30.45;19.35;;;-4.50;99.90;;;;;;5095265;28;20055;-78
2021/12/22 04:37:57;;;;;;;33.15;19.05;;;-4.50;99.90;;;;;;5094998;28;20052;-80
2021/12/22 04:40:23;;;;;;;28.10;18.20;;;-4.50;99.90;;;;;;5095010;28;20051;-80
2021/12/22 04:42:48;;;;;;;25.98;16.45;;;-4.50;99.90;;;;;;5094631;28;20051;-77
2021/12/22 04:45:14;;;;;;;26.77;17.50;;;-4.50;99.90;;;;;;5095848;28;20050;-78
2021/12/22 04:47:40;;;;;;;27.35;16.98;;;-4.50;99.90;;;;;;5094520;28;20055;-78
2021/12/22 04:50:12;;;;;;;27.90;18.13;;;-4.60;99.90;;;;;;5095518;28;20416;-80
2021/12/22 04:52:48;;;;;;;27.90;17.65;;;-4.60;99.90;;;;;;5113528;28;20035;-80
2021/12/22 04:55:14;;;;;;;28.00;18.17;;;-4.60;99.90;;;;;;5095391;28;20079;-78
2021/12/22 04:57:40;;;;;;;31.58;18.17;;;-4.50;99.90;;;;;;5077506;28;20055;-79
2021/12/22 05:00:10;;;;;;;28.83;18.33;;;-4.50;99.90;;;;;;5078608;28;20047;-82
2021/12/22 05:02:36;;;;;;;28.38;18.23;;;-4.50;99.90;;;;;;5095458;28;20075;-80
2021/12/22 05:05:03;;;;;;;29.85;18.13;;;-4.50;99.90;;;;;;5094792;28;20051;-79
2021/12/22 05:07:28;;;;;;;30.85;18.48;;;-4.50;99.90;;;;;;5078126;28;20035;-74
2021/12/22 05:09:54;;;;;;;28.58;18.60;;;-4.50;99.90;;;;;;5111290;28;20484;-79
2021/12/22 05:12:19;;;;;;;29.38;18.08;;;-4.50;99.90;;;;;;5094568;28;20028;-79
2021/12/22 05:14:49;;;;;;;34.00;19.20;;;-4.50;99.90;;;;;;5078130;28;20048;-80
2021/12/22 05:17:26;;;;;;;31.30;19.00;;;-4.50;99.90;;;;;;5079346;28;20384;-81
2021/12/22 05:19:51;;;;;;;30.90;18.63;;;-4.50;99.90;;;;;;5077757;28;20039;-81
2021/12/22 05:22:17;;;;;;;30.25;19.38;;;-4.50;99.90;;;;;;5077447;28;20119;-79
2021/12/22 05:24:43;;;;;;;32.20;18.90;;;-4.50;99.90;;;;;;5110835;28;20032;-80
2021/12/22 05:27:11;;;;;;;30.80;19.48;;;-4.50;99.90;;;;;;5091223;28;20032;-79
2021/12/22 05:29:38;;;;;;;33.92;17.85;;;-4.60;99.90;;;;;;5075653;28;20066;-80
2021/12/22 05:32:04;;;;;;;29.92;18.48;;;-4.50;99.90;;;;;;5094540;28;20039;-79
2021/12/22 05:34:30;;;;;;;27.95;17.90;;;-4.50;99.90;;;;;;5094180;28;20062;-79
2021/12/22 05:36:56;;;;;;;28.75;17.67;;;-4.50;99.90;;;;;;5093819;28;20055;-81
2021/12/22 05:39:21;;;;;;;27.13;17.55;;;-4.50;99.90;;;;;;5083764;28;20044;-78
2021/12/22 05:41:47;;;;;;;26.15;17.85;;;-4.50;99.90;;;;;;5074030;28;20047;-80
2021/12/22 05:44:13;;;;;;;31.45;17.38;;;-4.50;99.90;;;;;;5094111;28;20043;-79
2021/12/22 05:46:38;;;;;;;31.80;19.00;;;-4.50;99.90;;;;;;5090634;28;20750;-78
2021/12/22 05:49:04;;;;;;;28.92;17.70;;;-4.50;99.90;;;;;;5092107;28;20043;-76
2021/12/22 05:51:33;;;;;;;28.70;17.48;;;-4.50;99.90;;;;;;5074242;28;20123;-78
2021/12/22 05:53:58;;;;;;;27.15;17.83;;;-4.50;99.90;;;;;;5072996;28;20052;-75
2021/12/22 05:56:26;;;;;;;30.38;18.85;;;-4.50;99.90;;;;;;5054112;28;20154;-82
2021/12/22 05:58:53;;;;;;;27.63;17.05;;;-4.50;99.90;;;;;;5073738;28;20048;-81
2021/12/22 06:01:18;;;;;;;28.60;17.58;;;-4.60;99.90;;;;;;5056504;28;20050;-80
2021/12/22 06:03:44;;;;;;;26.00;16.25;;;-4.60;99.90;;;;;;5091778;28;20455;-82
2021/12/22 06:06:11;;;;;;;26.50;16.95;;;-4.60;99.90;;;;;;5073371;28;20508;-81
2021/12/22 06:08:37;;;;;;;28.65;16.27;;;-4.60;99.90;;;;;;5073746;28;20048;-82
2021/12/22 06:11:03;;;;;;;27.88;16.90;;;-4.60;99.90;;;;;;5075021;28;20040;-84
2021/12/22 06:13:29;;;;;;;26.20;16.30;;;-4.60;99.90;;;;;;5060376;28;20047;-76
2021/12/22 06:15:54;;;;;;;30.75;16.92;;;-4.60;99.90;;;;;;5074970;28;20031;-84
2021/12/22 06:18:20;;;;;;;24.13;15.25;;;-4.60;99.90;;;;;;5056394;28;20098;-83
2021/12/22 06:20:46;;;;;;;27.38;16.40;;;-4.60;99.90;;;;;;5072921;28;20441;-82
2021/12/22 06:23:11;;;;;;;27.00;15.88;;;-4.60;99.90;;;;;;5073188;28;20515;-81
2021/12/22 06:25:37;;;;;;;29.42;15.85;;;-4.70;99.90;;;;;;5073508;28;20055;-80
2021/12/22 06:28:04;;;;;;;27.67;16.98;;;-4.70;99.90;;;;;;5071900;28;20096;-79
2021/12/22 06:30:30;;;;;;;25.25;15.18;;;-4.70;99.90;;;;;;5056425;28;20055;-78
2021/12/22 06:32:56;;;;;;;31.50;16.55;;;-4.70;99.90;;;;;;5036078;28;20045;-78
2021/12/22 06:35:22;;;;;;;26.38;15.10;;;-4.70;99.90;;;;;;5070665;28;20071;-77
2021/12/22 06:37:48;;;;;;;25.20;15.18;;;-4.70;99.90;;;;;;5090019;28;20269;-76
2021/12/22 06:40:16;;;;;;;25.58;15.27;;;-4.70;99.90;;;;;;5054405;28;20044;-77
2021/12/22 06:42:42;;;;;;;26.08;15.95;;;-4.70;99.90;;;;;;5052388;28;20048;-79
2021/12/22 06:45:10;;;;;;;27.35;16.38;;;-4.60;99.90;;;;;;5073601;28;20043;-79
2021/12/22 06:47:36;;;;;;;26.10;15.85;;;-4.60;99.90;;;;;;5072634;28;20385;-79
2021/12/22 06:50:04;;;;;;;25.30;15.90;;;-4.60;99.90;;;;;;5054562;28;20070;-73
2021/12/22 06:52:29;;;;;;;27.75;15.82;;;-4.70;99.90;;;;;;5059975;28;20064;-79
2021/12/22 06:54:55;;;;;;;23.40;14.52;;;-4.70;99.90;;;;;;5047449;28;20094;-79
2021/12/22 06:57:21;;;;;;;27.98;16.17;;;-4.70;99.90;;;;;;5070973;28;20131;-77
2021/12/22 06:59:48;;;;;;;26.33;15.95;;;-4.70;99.90;;;;;;5056011;28;20400;-80
2021/12/22 07:02:13;;;;;;;26.10;15.73;;;-4.70;99.90;;;;;;5068624;28;20455;-82
2021/12/22 07:04:39;;;;;;;28.42;16.77;;;-4.70;99.90;;;;;;5069356;28;20152;-77
2021/12/22 07:07:05;;;;;;;30.23;17.38;;;-4.70;99.90;;;;;;5069910;28;20058;-68
2021/12/22 07:09:31;;;;;;;28.02;16.23;;;-4.70;99.90;;;;;;5071908;28;20124;-73
2021/12/22 07:11:57;;;;;;;27.05;17.00;;;-4.70;99.90;;;;;;5054853;28;20036;-78
2021/12/22 07:14:22;;;;;;;27.20;15.85;;;-4.70;99.90;;;;;;5068658;28;20044;-72
2021/12/22 07:16:48;;;;;;;30.30;16.80;;;-4.70;99.90;;;;;;5071682;28;20048;-74
2021/12/22 07:19:14;;;;;;;29.48;16.63;;;-4.50;99.90;;;;;;5053637;28;20123;-77
2021/12/22 07:21:39;;;;;;;27.45;15.88;;;-4.60;99.90;;;;;;5072137;28;20545;-77
2021/12/22 07:24:06;;;;;;;25.13;14.82;;;-4.50;99.90;;;;;;5071769;28;20044;-77
2021/12/22 07:26:32;;;;;;;25.33;16.52;;;-4.50;99.90;;;;;;5072463;28;20048;-77
2021/12/22 07:28:58;;;;;;;31.63;18.35;;;-4.50;99.90;;;;;;5047938;28;20135;-75
2021/12/22 07:31:24;;;;;;;27.23;16.63;;;-4.50;99.90;;;;;;5068198;28;20045;-73
2021/12/22 07:33:58;;;;;;;28.20;17.58;;;-4.50;99.90;;;;;;5055343;28;20381;-76
2021/12/22 07:36:24;;;;;;;26.23;16.77;;;-4.50;99.90;;;;;;5072433;28;20040;-76
2021/12/22 07:38:58;;;;;;;28.40;16.33;;;-4.40;99.90;;;;;;5071845;28;20059;-76
2021/12/22 07:41:24;;;;;;;28.15;16.25;;;-4.50;99.90;;;;;;5072488;28;20040;-73
2021/12/22 07:43:50;;;;;;;28.70;16.73;;;-4.50;99.90;;;;;;5055411;28;20044;-76
2021/12/22 07:46:15;;;;;;;22.27;15.32;;;-4.50;99.90;;;;;;5071964;28;20048;-79
2021/12/22 07:48:41;;;;;;;26.20;16.33;;;-4.40;99.90;;;;;;5072176;28;20062;-77
2021/12/22 07:51:07;;;;;;;26.75;16.17;;;-4.50;99.90;;;;;;5072383;28;20506;-77
2021/12/22 07:53:33;;;;;;;26.27;17.20;;;-4.40;99.90;;;;;;5071747;28;20490;-73
2021/12/22 07:55:59;;;;;;;23.92;15.32;;;-4.40;99.90;;;;;;5071748;28;20088;-77
2021/12/22 07:58:25;;;;;;;25.25;16.30;;;-4.40;99.90;;;;;;5072348;28;20044;-73
2021/12/22 08:00:53;;;;;;;28.17;16.58;;;-4.40;99.90;;;;;;5055131;28;20048;-77
2021/12/22 08:03:20;;;;;;;23.73;15.75;;;-4.40;99.90;;;;;;5072151;28;20036;-72
2021/12/22 08:05:45;;;;;;;24.85;16.08;;;-4.40;99.90;;;;;;5072505;28;20048;-76
2021/12/22 08:08:11;;;;;;;24.13;16.00;;;-4.30;99.90;;;;;;5075797;28;20044;-76
2021/12/22 08:10:37;;;;;;;28.70;16.92;;;-4.30;99.90;;;;;;5059377;28;20475;-75
2021/12/22 08:13:03;;;;;;;28.02;16.35;;;-4.30;99.90;;;;;;5075216;28;20036;-73
2021/12/22 08:15:30;;;;;;;26.27;16.70;;;-4.30;99.90;;;;;;5075664;28;20447;-74
2021/12/22 08:17:55;;;;;;;27.17;15.55;;;-4.30;99.90;;;;;;5075682;28;20047;-75
2021/12/22 08:20:23;;;;;;;30.95;16.83;;;-4.20;99.90;;;;;;5075662;28;20126;-75
2021/12/22 08:22:49;;;;;;;26.60;16.33;;;-4.20;99.90;;;;;;5075704;28;20173;-72
2021/12/22 08:25:15;;;;;;;29.30;16.73;;;-4.20;99.90;;;;;;5075549;28;20099;-76
2021/12/22 08:27:40;;;;;;;24.88;16.33;;;-4.10;99.90;;;;;;5075455;28;20075;-76
2021/12/22 08:30:08;;;;;;;25.45;16.65;;;-4.10;99.90;;;;;;5058744;28;20560;-75
2021/12/22 08:32:34;;;;;;;25.70;16.38;;;-4.00;99.90;;;;;;5075295;28;20048;-75
2021/12/22 08:35:03;;;;;;;23.95;16.00;;;-4.00;99.90;;;;;;5058199;28;20040;-74
2021/12/22 08:40:17;;;;;;;27.40;16.15;;;-3.90;99.90;;;;;;5075640;28;20040;-75
2021/12/22 08:42:44;;;;;;;25.88;16.17;;;-3.80;99.90;;;;;;5075196;28;20063;-75
2021/12/22 08:45:11;;;;;;;29.08;18.00;;;-3.80;99.90;;;;;;5075127;28;20036;-76
2021/12/22 08:47:37;;;;;;;29.20;17.23;;;-3.80;99.90;;;;;;5058683;28;20096;-76
2021/12/22 08:50:04;;;;;;;29.83;16.55;;;-3.80;99.90;;;;;;5074853;28;20052;-72
2021/12/22 08:52:30;;;;;;;29.20;17.92;;;-3.70;99.90;;;;;;5075036;28;20055;-75
2021/12/22 08:54:55;;;;;;;27.67;17.17;;;-3.70;99.90;;;;;;5074197;28;20047;-76
2021/12/22 08:57:21;;;;;;;27.35;15.98;;;-3.60;99.90;;;;;;5058508;28;20040;-75
2021/12/22 08:59:46;;;;;;;23.35;16.52;;;-3.60;99.90;;;;;;5074486;28;20197;-77
2021/12/22 09:02:12;;;;;;;28.55;16.95;;;-3.60;99.90;;;;;;5074623;28;20091;-72
2021/12/22 09:04:38;;;;;;;22.58;15.30;;;-3.50;99.90;;;;;;5075089;28;20048;-76
2021/12/22 09:07:06;;;;;;;24.83;16.15;;;-3.60;99.90;;;;;;5075121;28;20043;-75
2021/12/22 09:09:32;;;;;;;28.50;17.10;;;-3.50;99.90;;;;;;5057743;28;20036;-76
2021/12/22 09:11:58;;;;;;;28.67;18.50;;;-3.40;99.90;;;;;;5057931;28;20132;-75
2021/12/22 09:14:24;;;;;;;27.02;16.33;;;-3.40;99.90;;;;;;5072930;28;20073;-76
2021/12/22 09:16:51;;;;;;;25.20;15.77;;;-3.40;99.90;;;;;;5073294;28;20048;-76
2021/12/22 09:19:17;;;;;;;24.95;16.13;;;-3.40;99.90;;;;;;5054745;28;20143;-77
2021/12/22 09:21:43;;;;;;;25.52;16.20;;;-3.40;99.90;;;;;;5054715;28;20131;-74
2021/12/22 09:24:09;;;;;;;24.38;16.23;;;-3.30;99.90;;;;;;5056702;28;20409;-74
2021/12/22 09:26:36;;;;;;;24.38;16.67;;;-3.30;99.90;;;;;;5074496;28;20059;-70
2021/12/22 09:29:03;;;;;;;21.83;15.10;;;-3.30;99.90;;;;;;5074056;28;20412;-73
2021/12/22 09:31:28;;;;;;;24.23;15.63;;;-3.20;99.90;;;;;;5074287;28;20499;-69
2021/12/22 09:33:54;;;;;;;27.23;16.75;;;-3.10;99.90;;;;;;5074268;28;20102;-73
2021/12/22 09:36:21;;;;;;;24.27;15.65;;;-3.00;99.90;;;;;;5092251;28;20089;-72
2021/12/22 09:38:46;;;;;;;23.65;15.75;;;-3.00;99.90;;;;;;5074038;28;20135;-72
2021/12/22 09:41:12;;;;;;;24.17;15.50;;;-2.90;99.90;;;;;;5074119;28;20543;-72
2021/12/22 09:43:39;;;;;;;22.10;15.43;;;-2.90;99.90;;;;;;5074530;28;20052;-68
2021/12/22 09:46:09;;;;;;;23.52;14.75;;;-2.90;99.90;;;;;;5073929;28;20119;-71
2021/12/22 09:48:49;;;;;;;26.42;15.43;;;-2.80;99.90;;;;;;5073800;28;20113;-72
2021/12/22 09:53:46;;;;;;;24.00;16.33;;;-2.60;99.90;;;;;;5065611;28;20060;-72
2021/12/22 09:56:19;;;;;;;23.23;14.80;;;-2.50;99.90;;;;;;5073525;28;20507;-73
2021/12/22 09:58:46;;;;;;;25.33;15.98;;;-2.50;99.90;;;;;;5072969;28;20197;-72
2021/12/22 10:01:13;;;;;;;23.02;13.98;;;-2.40;99.90;;;;;;5073713;28;20048;-72
2021/12/22 10:03:39;;;;;;;24.60;16.27;;;-2.40;99.90;;;;;;5073661;28;20070;-73
2021/12/22 10:06:05;;;;;;;24.92;15.52;;;-2.30;99.90;;;;;;5073495;28;20047;-68
2021/12/22 10:08:31;;;;;;;22.23;14.30;;;-2.20;99.90;;;;;;5073584;28;20147;-73
2021/12/22 10:11:01;;;;;;;23.10;15.15;;;-2.00;99.90;;;;;;5073326;28;20051;-70
2021/12/22 10:13:28;;;;;;;23.88;15.40;;;-1.90;99.90;;;;;;5056537;28;20094;-72
2021/12/22 10:15:55;;;;;;;20.95;14.05;;;-1.80;99.90;;;;;;5073258;28;20516;-72
2021/12/22 10:18:23;;;;;;;23.98;14.70;;;-1.70;99.90;;;;;;5070931;28;20055;-71
2021/12/22 10:20:51;;;;;;;26.00;16.05;;;-1.60;99.90;;;;;;5073454;28;20048;-70
2021/12/22 10:23:30;;;;;;;22.10;14.23;;;-1.60;99.90;;;;;;5073417;28;20040;-72
2021/12/22 10:26:02;;;;;;;22.95;14.80;;;-1.50;99.90;;;;;;5072563;28;20048;-72
2021/12/22 10:28:30;;;;;;;21.33;15.07;;;-1.50;99.90;;;;;;5054892;28;20119;-72
2021/12/22 10:31:01;;;;;;;22.00;14.32;;;-1.50;99.90;;;;;;5073160;28;20044;-71
2021/12/22 10:33:31;;;;;;;21.98;15.00;;;-1.40;99.90;;;;;;5071815;28;20048;-72
2021/12/22 10:36:05;;;;;;;24.20;15.43;;;-1.30;99.90;;;;;;5073128;28;20047;-73
2021/12/22 10:38:32;;;;;;;24.75;14.18;;;-1.20;99.90;;;;;;5050021;28;20102;-72
2021/12/22 10:41:05;;;;;;;24.60;15.43;;;-1.20;99.90;;;;;;5053508;28;20412;-67
2021/12/22 10:43:33;;;;;;;25.83;16.15;;;-1.10;99.90;;;;;;5052950;28;20029;-68
2021/12/22 10:46:02;;;;;;;25.50;14.88;;;-1.10;99.90;;;;;;5048727;28;20432;-68
2021/12/22 10:51:27;;;;;;;22.13;15.38;;;-0.90;99.90;;;;;;5072674;28;20052;-71
2021/12/22 10:53:53;;;;;;;26.45;15.57;;;-0.90;99.90;;;;;;5071774;28;20048;-68
2021/12/22 10:56:27;;;;;;;20.92;14.88;;;-0.80;99.90;;;;;;5072835;28;20044;-69
2021/12/22 10:59:08;;;;;;;23.38;14.88;;;-0.80;99.90;;;;;;5071720;28;20535;-72
2021/12/22 11:01:37;;;;;;;20.10;14.48;;;-0.70;99.90;;;;;;5072006;28;20043;-68
2021/12/22 11:04:13;;;;;;;20.15;14.77;;;-0.70;99.90;;;;;;5085599;28;20044;-72
2021/12/22 11:06:39;;;;;;;20.23;13.93;;;-0.70;99.90;;;;;;5072178;28;20404;-72
2021/12/22 11:09:15;;;;;;;22.15;14.45;;;-0.70;99.90;;;;;;5072465;28;20123;-69
2021/12/22 11:11:43;;;;;;;24.90;14.38;;;-0.70;99.90;;;;;;5072570;28;20048;-71
2021/12/22 11:14:14;;;;;;;26.17;14.75;;;-0.70;99.90;;;;;;5070777;28;20093;-68
2021/12/22 11:16:56;;;;;;;22.38;14.13;;;-0.60;99.90;;;;;;5084660;28;20595;-72
2021/12/22 11:19:24;;;;;;;20.65;13.57;;;-0.60;99.90;;;;;;5048618;28;20036;-71
2021/12/22 11:22:00;;;;;;;21.52;13.65;;;-0.50;99.90;;;;;;5071590;28;20055;-72
2021/12/22 11:24:30;;;;;;;21.85;13.95;;;-0.50;99.90;;;;;;5055831;28;20086;-72
2021/12/22 11:26:57;;;;;;;22.33;14.52;;;-0.50;99.90;;;;;;5055645;28;20623;-71
2021/12/22 11:29:24;;;;;;;22.67;15.13;;;-0.40;99.90;;;;;;5072113;28;20094;-73
2021/12/22 11:31:51;;;;;;;21.38;14.15;;;-0.30;99.90;;;;;;5072176;28;20059;-73
2021/12/22 11:34:19;;;;;;;18.90;13.77;;;-0.30;99.90;;;;;;5068428;28;20064;-73
2021/12/22 11:36:45;;;;;;;23.30;13.68;;;-0.20;99.90;;;;;;5051129;28;20432;-73
2021/12/22 11:39:12;;;;;;;21.92;14.00;;;-0.20;99.90;;;;;;5040028;28;20040;-73
2021/12/22 11:41:54;;;;;;;21.45;13.93;;;-0.20;99.90;;;;;;5058084;28;20399;-68
2021/12/22 11:44:23;;;;;;;20.48;13.68;;;-0.10;99.90;;;;;;5046508;28;20079;-72
2021/12/22 11:46:49;;;;;;;19.67;13.10;;;-0.10;99.90;;;;;;5075346;28;20072;-69
2021/12/22 11:49:19;;;;;;;23.05;13.77;;;0.00;99.90;;;;;;5075139;28;20047;-69
2021/12/22 11:51:44;;;;;;;17.92;13.15;;;0.00;99.90;;;;;;5075687;28;20081;-72
2021/12/22 11:54:10;;;;;;;18.85;13.32;;;0.00;99.90;;;;;;5075492;28;20040;-73
2021/12/22 11:56:48;;;;;;;19.88;12.82;;;0.00;99.90;;;;;;5074983;28;20438;-73
2021/12/22 11:59:34;;;;;;;19.90;13.73;;;0.10;99.90;;;;;;5055976;28;20128;-73
2021/12/22 12:02:18;;;;;;;20.70;13.52;;;0.10;99.90;;;;;;5068416;28;20047;-74
2021/12/22 12:04:47;;;;;;;19.40;13.20;;;0.10;99.90;;;;;;5075181;28;20076;-74
2021/12/22 12:07:43;;;;;;;20.98;13.63;;;0.10;99.90;;;;;;5078949;28;20381;-73
2021/12/22 12:10:29;;;;;;;19.90;12.45;;;0.20;99.90;;;;;;5074803;28;20051;-74
2021/12/22 12:13:01;;;;;;;17.58;12.38;;;0.30;99.90;;;;;;5058458;28;20032;-74
2021/12/22 12:21:52;;;;;;;19.65;11.90;;;0.30;99.40;;;;;;5073413;28;20084;-74
2021/12/22 12:24:38;;;;;;;19.60;12.63;;;0.30;99.30;;;;;;5058249;28;20040;-69
2021/12/22 12:27:41;;;;;;;18.45;13.02;;;0.30;99.20;;;;;;5055498;28;20048;-69
2021/12/22 12:30:41;;;;;;;17.58;12.38;;;0.40;99.40;;;;;;5075489;28;20051;-74
2021/12/22 12:33:09;;;;;;;18.50;12.65;;;0.40;99.40;;;;;;5047751;28;20514;-73
2021/12/22 12:35:37;;;;;;;19.75;12.18;;;0.60;99.50;;;;;;5075279;28;20062;-71
2021/12/22 12:38:23;;;;;;;19.20;12.63;;;0.70;99.50;;;;;;5075010;28;20381;-75
2021/12/22 12:40:57;;;;;;;17.15;11.27;;;0.90;99.40;;;;;;5075606;28;20131;-73
2021/12/22 12:46:19;;;;;;;15.50;11.02;;;1.50;98.40;;;;;;5074672;28;20052;-72
2021/12/22 12:48:53;;;;;;;18.40;11.18;;;1.60;97.50;;;;;;5038564;28;20049;-74
2021/12/22 12:51:26;;;;;;;19.30;12.00;;;1.60;96.80;;;;;;5054060;28;20052;-71
2021/12/22 12:53:54;;;;;;;16.23;11.07;;;1.50;96.50;;;;;;5054769;28;20048;-74